x

West Tampa - 112 Nm Wnw Of Tampa, Fl (42036) Wave Buoy

6:50am - Thu 24th Jul 2014 All times are EDT. -4 hours from GMT.

  • Sig Wave height 0.7ft
  • Average Period 5s
  • Wind
    2mph, 4mph gusts
  • Sea Temp 84°f
  • Air Temp 83°f
  • Sea Pressure 1016.4mb
  • West Tampa  - 112 Nm Wnw Of Tampa, Fl
  • West Tampa  - 112 Nm Wnw Of Tampa, Fl

More Historic Weather Station data

Upgrade to MSW Pro to gain access to the past 30 days of data for over 8000 Wavebouys and Weather Stations around the globe.

Join Pro

Comparision Forecast

View Surf forecast
   
Thu 07/24 6:50am 0.7ft  -  5s 2 4 mph 1016.4mb 84f 83f
5:50am 0.7ft  -  4s 4
mph
1016.1mb 84f 83f
4:50am 0.7ft  -  4s 4
mph
1015.8mb 84f 83f
3:50am 0.7ft  -  4s 7 9 mph 1015.6mb 84f 84f
2:50am 0.7ft  -  4s 7 9 mph 1016mb 84f 83f
1:50am 0.7ft  -  5s 7 9 mph 1016.8mb 84f 83f
12:50am 0.7ft  -  5s 7 9 mph 1017.1mb 85f 83f
Wed 07/23 11:50pm 0.7ft  -  5s 4 7 mph 1017.3mb 85f 84f
10:50pm 0.7ft  -  5s 4 7 mph 1016.9mb 85f 84f
9:50pm 0.7ft  -  5s 4 7 mph 1016.8mb 85f 84f
8:50pm 0.7ft  -  5s 4 7 mph 1016.5mb 86f 83f
7:50pm 1ft 8s 5s 7 9 mph 1016.4mb 86f 84f
6:50pm 1ft 8s 5s 4 7 mph 1016.4mb 86f 84f
5:50pm 1ft 8s 6s 4 7 mph 1017.1mb 86f 84f
4:50pm 0.7ft  -  5s 4 7 mph 1017.3mb 87f 84f
3:50pm 1ft 8s 5s 4 7 mph 1017.9mb 87f 84f
2:50pm 1ft 8s 5s 4 7 mph 1018.4mb 87f 84f
1:50pm 1ft 8s 5s 4 7 mph 1018.7mb 86f 83f
12:50pm 1ft 9s 4s 4 7 mph 1018.9mb 86f 84f
11:50am 1ft 7s 4s 4
mph
1018.8mb 86f 83f
10:50am 1ft 5s 4s 2 4 mph 1018.7mb 85f 83f
9:50am 1ft 5s 4s 4
mph
1018.6mb 84f 83f
8:50am 1.3ft 5s 4s 4 7 mph 1018.4mb 84f 83f
7:50am 1.3ft 5s 4s 2
mph
1018mb 84f 83f
6:50am 1.3ft 5s 4s 2
mph
1017.6mb 84f 83f
5:50am 1ft 5s 4s 2 4 mph 1017.1mb 84f 83f
4:50am 1ft 8s 4s 4
mph
1016.9mb 84f 83f
3:50am 1ft 8s 4s 4 7 mph 1017mb 84f 83f
2:50am 0.7ft  -  4s 4 7 mph 1017.2mb 84f 83f
1:50am 1ft 9s 4s 7
mph
1017.3mb 84f 83f
12:50am 1ft 9s 4s 4
mph
1017.9mb 84f 83f
Tue 07/22 11:50pm 1ft 8s 4s 2
mph
1018.2mb 84f 83f
10:50pm 1ft 8s 5s 2
mph
1018.2mb 85f 84f
9:50pm 1ft 8s 4s  -  2 mph 1017.8mb 86f 84f
8:50pm 1ft 8s 4s  -  2 mph 1017.6mb 88f 84f
7:50pm 1ft 8s 5s 2 4 mph 1017mb 87f 85f
6:50pm 1ft 5s 4s  -  2 mph 1016.4mb 88f 86f
5:50pm 1ft 4s 4s 2 4 mph 1016.9mb 88f 85f
4:50pm 1ft 3s 4s 2 4 mph 1017mb 89f 85f
3:50pm 1ft 8s 4s 4 9 mph 1017.7mb 89f 84f
2:50pm 1ft 4s 4s 2
mph
1018mb 89f 84f
1:50pm 1ft 4s 4s 2 4 mph 1018.4mb 88f 83f
12:50pm 1ft 8s 4s 2 7 mph 1018.2mb 87f 83f
11:50am 1ft 8s 4s  -  2 mph 1017.9mb 86f 83f
10:50am 1ft 4s 4s 2 4 mph 1018mb 85f 83f
9:50am 1ft 4s 4s 4
mph
1018.2mb 84f 82f
8:50am 1.3ft 5s 4s 4
mph
1017.8mb 83f 83f
7:50am 1.3ft 5s 4s 2 4 mph 1017.6mb 83f 82f
6:50am 1.3ft 5s 5s 4
mph
1016.9mb 83f 82f
5:50am 1ft 6s 5s 4 7 mph 1016.3mb 83f 82f
4:50am 1ft 5s 5s 7 9 mph 1015.9mb 83f 82f
3:50am 1ft 6s 5s 9 11 mph 1016mb 83f 81f
2:50am 1ft 5s 5s 4
mph
1016.4mb 83f 81f
1:50am 1ft 5s 5s 7 9 mph 1017.1mb 83f 82f
12:50am 1ft 6s 5s 7 9 mph 1017.5mb 83f 82f
Mon 07/21 11:50pm 1.3ft 6s 5s 7 11 mph 1017.5mb 84f 82f
10:50pm 1.3ft 6s 4s 7 9 mph 1017.5mb 84f 82f
9:50pm 1.3ft 4s 4s 4 7 mph 1017.4mb 84f 82f
8:50pm 1.6ft 4s 4s 4
mph
1016.8mb 84f 81f
7:50pm 2ft 4s 4s 7
mph
1016.4mb 84f 81f
6:50pm 2.5ft 4s 4s  -  2 mph 1016.6mb 84f 80f
5:50pm 2.5ft 4s 4s 7
mph
1017.1mb 84f 78f
4:50pm 2.5ft 4s 4s 11 13 mph 1017.2mb 84f 78f
3:50pm 2.5ft 3s 3s 20 25 mph 1017.5mb 84f 78f
2:50pm 1.3ft 8s 4s 18 22 mph 1017.9mb 84f 82f
1:50pm 1.3ft 6s 4s 9 11 mph 1018.2mb 84f 81f
12:50pm 1.3ft 6s 4s 11 16 mph 1018.5mb 84f 81f
11:50am 1.6ft 5s 4s 2 4 mph 1019.1mb 84f 83f
10:50am 1.6ft 6s 5s 2
mph
1018.4mb 84f 83f
9:50am 1.6ft 5s 5s 4
mph
1018.3mb 84f 83f
8:50am 1.6ft 5s 5s 4
mph
1018.5mb 84f 83f
7:50am 1.6ft 5s 5s 7 9 mph 1017.7mb 84f 83f
6:50am 2ft 6s 5s 7 9 mph 1017.1mb 84f 83f
5:50am 2ft 5s 5s 7 9 mph 1016.4mb 84f 83f
4:50am 2.5ft 6s 5s 2 4 mph 1015.9mb 84f 83f
3:50am 2ft 6s 5s 4 7 mph 1016mb 84f 83f
2:50am 2.5ft 6s 5s 2 4 mph 1016.6mb 84f 83f
1:50am 2ft 6s 5s 4 7 mph 1017.2mb 84f 83f
12:50am 2.5ft 6s 5s 4 7 mph 1018mb 84f 83f
Sun 07/20 11:50pm 2.5ft 7s 5s 2 4 mph 1017.7mb 84f 83f
10:50pm 2.5ft 6s 4s 4
mph
1017.6mb 84f 83f
9:50pm 2.5ft 5s 4s 4 7 mph 1017.3mb 84f 83f
8:50pm 3ft 5s 4s 9
mph
1016.9mb 84f 83f
7:50pm 3ft 6s 4s 7 9 mph 1016.3mb 84f 82f
6:50pm 3.5ft 5s 4s 16 18 mph 1016.6mb 84f 83f
5:50pm 3.5ft 5s 4s 16 18 mph 1016.8mb 84f 83f
4:50pm 3.5ft 5s 4s 16 18 mph 1017.4mb 84f 83f
3:50pm 3ft 4s 4s 16 20 mph 1017.6mb 84f 82f
2:50pm 3.5ft 7s 4s 18 20 mph 1018.4mb 84f 82f
1:50pm 2.5ft 6s 4s 25 27 mph 1017.9mb 84f 81f
12:50pm  -   -   -  11 13 mph 1018.9mb 84f 84f